createdAt,value
2018-07-25T00:01:42.579Z,50.26
2018-07-25T00:04:46.231Z,50.17
2018-07-25T00:07:49.869Z,50.15
2018-07-25T00:10:55.476Z,50.27
2018-07-25T00:13:59.285Z,50.75
2018-07-25T00:17:03.029Z,50.05
2018-07-25T00:20:06.706Z,50.06
2018-07-25T00:23:10.276Z,50.61
2018-07-25T00:26:13.896Z,50.88
2018-07-25T00:29:17.525Z,51.15
2018-07-25T00:32:21.210Z,51.07
2018-07-25T00:35:24.836Z,51.32
2018-07-25T00:38:28.535Z,51.59
2018-07-25T00:41:32.120Z,51.70
2018-07-25T00:44:35.865Z,52.40
2018-07-25T00:47:39.609Z,52.08
2018-07-25T00:50:43.216Z,52.10
2018-07-25T00:53:46.870Z,52.44
2018-07-25T00:56:50.654Z,52.66
2018-07-25T00:59:54.271Z,52.12
2018-07-25T01:02:57.990Z,52.18
2018-07-25T01:06:01.623Z,51.95
2018-07-25T01:09:07.760Z,51.70
2018-07-25T01:12:11.376Z,51.64
2018-07-25T01:15:15.047Z,51.93
2018-07-25T01:18:18.611Z,51.95
2018-07-25T01:21:22.207Z,51.58
2018-07-25T01:24:26.061Z,51.80
2018-07-25T01:27:29.622Z,51.49
2018-07-25T01:30:33.307Z,50.93
2018-07-25T01:33:36.847Z,53.02
2018-07-25T01:36:40.456Z,54.34
2018-07-25T01:39:44.068Z,55.11
2018-07-25T01:42:47.681Z,56.52
2018-07-25T01:45:51.357Z,58.59
2018-07-25T01:48:54.964Z,59.35
2018-07-25T01:51:58.556Z,59.72
2018-07-25T01:55:02.260Z,60.62
2018-07-25T01:58:06.151Z,60.50
2018-07-25T02:01:09.781Z,60.80
2018-07-25T02:04:13.499Z,61.01
2018-07-25T02:07:17.156Z,61.55
2018-07-25T02:10:20.772Z,61.90
2018-07-25T02:13:24.341Z,61.39
2018-07-25T02:16:27.886Z,59.35
2018-07-25T02:19:31.671Z,57.82
2018-07-25T02:22:35.323Z,57.43
2018-07-25T02:25:39.915Z,56.44
2018-07-25T02:28:43.475Z,55.85
2018-07-25T02:31:47.131Z,55.09
2018-07-25T02:34:50.752Z,54.49
2018-07-25T02:37:54.352Z,53.73
2018-07-25T02:40:58.171Z,54.36
2018-07-25T02:44:01.753Z,55.68
2018-07-25T02:47:05.388Z,56.54
2018-07-25T02:50:09.080Z,57.90
2018-07-25T02:53:12.974Z,58.81
2018-07-25T02:56:16.687Z,57.40
2018-07-25T02:59:20.452Z,57.59
2018-07-25T03:02:24.065Z,56.37
2018-07-25T03:05:27.747Z,55.89
2018-07-25T03:08:31.433Z,56.30
2018-07-25T03:11:35.076Z,58.75
2018-07-25T03:14:38.798Z,60.45
2018-07-25T03:17:42.466Z,62.50
2018-07-25T03:20:46.138Z,62.23
2018-07-25T03:23:49.787Z,62.52
2018-07-25T03:26:53.441Z,62.69
2018-07-25T03:29:57.176Z,62.38
2018-07-25T03:33:00.698Z,62.18
2018-07-25T03:36:04.385Z,62.71
2018-07-25T03:39:08.275Z,63.74
2018-07-25T03:42:11.919Z,63.26
2018-07-25T03:45:15.534Z,63.33
2018-07-25T03:48:19.205Z,63.85
2018-07-25T03:51:22.772Z,63.68
2018-07-25T03:54:26.435Z,63.56
2018-07-25T03:57:30.031Z,63.42
2018-07-25T04:00:33.676Z,62.68
2018-07-25T04:03:37.319Z,61.45
2018-07-25T04:06:40.914Z,60.07
2018-07-25T04:09:44.892Z,59.62
2018-07-25T04:12:48.621Z,58.98
2018-07-25T04:15:52.370Z,56.95
2018-07-25T04:18:55.993Z,54.73
2018-07-25T04:21:59.562Z,52.60
2018-07-25T04:25:03.446Z,50.54
2018-07-25T04:28:07.263Z,48.38
2018-07-25T04:31:10.906Z,47.94
2018-07-25T04:34:14.668Z,47.60
2018-07-25T04:37:18.216Z,47.73
2018-07-25T04:40:21.782Z,47.91
2018-07-25T04:43:25.407Z,49.74
2018-07-25T04:46:29.109Z,49.21
2018-07-25T04:49:32.627Z,49.39
2018-07-25T04:52:36.642Z,48.62
2018-07-25T04:55:40.293Z,48.52
2018-07-25T04:58:43.813Z,48.00
2018-07-25T05:01:47.514Z,50.51
2018-07-25T05:04:51.090Z,50.98
2018-07-25T05:07:54.704Z,50.91
2018-07-25T05:10:58.399Z,51.38
2018-07-25T05:14:01.984Z,50.55
2018-07-25T05:17:05.776Z,49.94
2018-07-25T05:20:10.427Z,50.06
2018-07-25T05:23:14.431Z,51.68
2018-07-25T05:26:18.003Z,54.57
2018-07-25T05:29:21.703Z,56.63
2018-07-25T05:32:25.549Z,55.97
2018-07-25T05:35:29.398Z,55.21
2018-07-25T05:38:33.025Z,55.70
2018-07-25T05:41:36.720Z,56.30
2018-07-25T05:44:40.344Z,57.23
2018-07-25T05:47:43.917Z,56.85
2018-07-25T05:50:47.439Z,55.99
2018-07-25T05:53:51.084Z,57.95
2018-07-25T05:56:54.699Z,55.12
2018-07-25T05:59:58.461Z,54.35
2018-07-25T06:03:02.322Z,49.07
2018-07-25T06:06:06.151Z,45.30
2018-07-25T06:09:10.625Z,46.21
2018-07-25T06:12:14.298Z,48.47
2018-07-25T06:15:17.974Z,48.78
2018-07-25T06:18:21.754Z,46.76
2018-07-25T06:21:25.381Z,46.98
2018-07-25T06:24:29.079Z,48.42
2018-07-25T06:27:32.816Z,50.39
2018-07-25T06:30:36.554Z,48.42
2018-07-25T06:33:40.450Z,46.57
2018-07-25T06:36:44.042Z,41.79
2018-07-25T06:39:47.608Z,41.82
2018-07-25T06:42:51.248Z,38.19
2018-07-25T06:45:55.004Z,37.47
2018-07-25T06:48:58.561Z,35.63
2018-07-25T06:52:02.236Z,35.52
2018-07-25T06:55:05.971Z,35.02
2018-07-25T06:58:09.651Z,33.26
2018-07-25T07:01:13.225Z,33.09
2018-07-25T07:04:17.080Z,34.75
2018-07-25T07:07:20.739Z,38.84
2018-07-25T07:10:24.510Z,39.63
2018-07-25T07:13:28.094Z,37.48
2018-07-25T07:16:31.679Z,37.95
2018-07-25T07:19:35.563Z,37.22
2018-07-25T07:22:39.302Z,38.79
2018-07-25T07:25:43.052Z,38.85
2018-07-25T07:28:46.661Z,37.59
2018-07-25T07:31:50.296Z,39.22
2018-07-25T07:34:53.999Z,37.97
2018-07-25T07:37:57.789Z,38.05
2018-07-25T07:41:01.615Z,37.83
2018-07-25T07:44:05.695Z,35.83
2018-07-25T07:47:09.284Z,37.80
2018-07-25T07:50:12.969Z,40.45
2018-07-25T07:53:16.606Z,38.88
2018-07-25T07:56:20.436Z,39.76
2018-07-25T07:59:24.258Z,36.95
2018-07-25T08:02:27.853Z,35.86
2018-07-25T08:05:31.515Z,35.84
2018-07-25T08:08:35.308Z,36.80
2018-07-25T08:11:39.016Z,36.96
2018-07-25T08:14:42.714Z,35.86
2018-07-25T08:17:46.496Z,36.09
2018-07-25T08:20:50.110Z,35.28
2018-07-25T08:23:53.810Z,36.22
2018-07-25T08:26:57.446Z,35.93
2018-07-25T08:30:01.193Z,35.22
2018-07-25T08:33:04.892Z,35.64
2018-07-25T08:36:08.533Z,34.97
2018-07-25T08:39:12.137Z,34.24
2018-07-25T08:42:15.972Z,35.88
2018-07-25T08:45:19.661Z,36.63
2018-07-25T08:48:23.462Z,34.80
2018-07-25T08:51:27.110Z,31.82
2018-07-25T08:54:30.734Z,32.99
2018-07-25T08:57:34.283Z,33.10
2018-07-25T09:00:38.078Z,33.01
2018-07-25T09:03:41.746Z,33.03
2018-07-25T09:06:45.336Z,31.37
2018-07-25T09:09:49.078Z,31.88
2018-07-25T09:12:52.781Z,31.72
2018-07-25T09:15:56.456Z,32.21
2018-07-25T09:19:00.290Z,29.11
2018-07-25T09:22:04.050Z,29.85
2018-07-25T09:25:08.062Z,31.04
2018-07-25T09:28:11.630Z,31.08
2018-07-25T09:31:15.282Z,31.47
2018-07-25T09:34:19.050Z,31.27
2018-07-25T09:37:22.580Z,31.20
2018-07-25T09:40:26.447Z,31.59
2018-07-25T09:43:30.154Z,31.62
2018-07-25T09:46:33.972Z,32.43
2018-07-25T09:49:37.658Z,31.90
2018-07-25T09:52:41.296Z,31.01
2018-07-25T09:55:44.998Z,31.76
2018-07-25T09:58:48.742Z,30.47
2018-07-25T10:01:52.388Z,30.84
2018-07-25T10:04:56.173Z,30.85
2018-07-25T10:07:59.902Z,31.55
2018-07-25T10:11:03.652Z,31.22
2018-07-25T10:14:07.516Z,29.66
2018-07-25T10:17:11.331Z,30.95
2018-07-25T10:20:14.969Z,30.33
2018-07-25T10:23:18.752Z,31.24
2018-07-25T10:26:22.409Z,31.62
2018-07-25T10:29:26.234Z,29.49
2018-07-25T10:32:29.912Z,30.91
2018-07-25T10:35:33.664Z,30.19
2018-07-25T10:38:37.336Z,28.72
2018-07-25T10:41:40.935Z,29.92
2018-07-25T10:44:44.576Z,28.84
2018-07-25T10:47:48.289Z,29.95
2018-07-25T10:50:51.927Z,30.55
2018-07-25T10:53:55.729Z,30.62
2018-07-25T10:56:59.458Z,30.39
2018-07-25T11:00:03.777Z,30.55
2018-07-25T11:03:07.774Z,30.66
2018-07-25T11:06:11.448Z,30.66
2018-07-25T11:09:15.177Z,29.92
2018-07-25T11:12:18.957Z,30.59
2018-07-25T11:15:22.667Z,29.53
2018-07-25T11:18:26.433Z,28.18
2018-07-25T11:21:30.204Z,27.18
2018-07-25T11:24:34.008Z,27.87
2018-07-25T11:27:37.654Z,27.73
2018-07-25T11:30:41.387Z,28.70
2018-07-25T11:33:45.198Z,29.43
2018-07-25T11:36:48.911Z,30.63
2018-07-25T11:39:52.497Z,30.62
2018-07-25T11:42:56.126Z,31.96
2018-07-25T11:45:59.804Z,30.70
2018-07-25T11:49:03.487Z,30.98
2018-07-25T11:52:08.062Z,31.23
2018-07-25T11:55:11.728Z,31.08
2018-07-25T11:58:15.463Z,30.44
2018-07-25T12:01:19.646Z,30.98
2018-07-25T12:04:23.272Z,32.30
2018-07-25T12:07:26.935Z,33.72
2018-07-25T12:10:30.711Z,32.72
2018-07-25T12:13:34.434Z,29.76
2018-07-25T12:16:38.026Z,30.86
2018-07-25T12:19:41.847Z,30.43
2018-07-25T12:22:45.432Z,29.88
2018-07-25T12:25:49.187Z,31.10
2018-07-25T12:28:52.878Z,31.88
2018-07-25T12:31:56.577Z,33.23
2018-07-25T12:35:00.200Z,31.57
2018-07-25T12:38:03.967Z,32.52
2018-07-25T12:41:07.853Z,32.46
2018-07-25T12:44:11.610Z,31.08
2018-07-25T12:47:15.209Z,33.29
2018-07-25T12:50:18.914Z,34.71
2018-07-25T12:53:22.668Z,35.18
2018-07-25T12:56:26.387Z,36.23
2018-07-25T12:59:30.454Z,35.28
2018-07-25T13:02:34.128Z,35.86
2018-07-25T13:05:37.743Z,33.11
2018-07-25T13:08:41.403Z,29.95
2018-07-25T13:11:45.132Z,29.01
2018-07-25T13:14:49.024Z,27.43
2018-07-25T13:17:52.670Z,29.10
2018-07-25T13:20:56.539Z,28.19
2018-07-25T13:24:00.279Z,27.07
2018-07-25T13:27:03.938Z,27.37
2018-07-25T13:30:07.974Z,26.53
2018-07-25T13:33:11.638Z,28.53
2018-07-25T13:36:15.357Z,27.95
2018-07-25T13:39:19.009Z,31.32
2018-07-25T13:42:22.708Z,30.62
2018-07-25T13:45:26.467Z,29.95
2018-07-25T13:48:30.510Z,29.08
2018-07-25T13:51:34.229Z,29.76
2018-07-25T13:54:38.085Z,28.31
2018-07-25T13:57:41.720Z,28.24
2018-07-25T14:00:45.454Z,26.79
2018-07-25T14:03:49.767Z,27.00
2018-07-25T14:06:53.483Z,27.33
2018-07-25T14:09:57.273Z,26.53
2018-07-25T14:13:01.015Z,28.01
2018-07-25T14:16:05.698Z,26.45
2018-07-25T14:19:09.673Z,26.18
2018-07-25T14:22:13.548Z,26.80
2018-07-25T14:25:17.301Z,26.37
2018-07-25T14:28:20.954Z,26.51
2018-07-25T14:31:24.785Z,24.36
2018-07-25T14:34:28.385Z,25.26
2018-07-25T14:37:32.303Z,26.66
2018-07-25T14:40:36.041Z,25.54
2018-07-25T14:43:39.696Z,25.73
2018-07-25T14:46:43.455Z,26.07
2018-07-25T14:49:47.239Z,26.45
2018-07-25T14:52:50.989Z,25.68
2018-07-25T14:55:54.720Z,25.84
2018-07-25T14:58:58.628Z,26.58
2018-07-25T15:02:02.420Z,25.42
2018-07-25T15:05:06.532Z,25.99
2018-07-25T15:08:10.302Z,25.76
2018-07-25T15:11:14.176Z,27.39
2018-07-25T15:14:18.043Z,28.82
2018-07-25T15:17:21.822Z,29.60
2018-07-25T15:20:25.712Z,30.12
2018-07-25T15:24:03.071Z,30.35
2018-07-25T15:27:06.827Z,31.23
2018-07-25T15:30:11.466Z,31.43
2018-07-25T15:33:15.135Z,31.15
2018-07-25T15:36:51.703Z,29.49
2018-07-25T15:39:55.445Z,29.78
2018-07-25T15:42:59.218Z,28.02
2018-07-25T15:46:02.979Z,27.86
2018-07-25T15:49:07.144Z,27.47
2018-07-25T15:52:11.020Z,27.18
2018-07-25T15:55:14.881Z,28.56
2018-07-25T15:58:18.635Z,29.06
2018-07-25T16:01:22.410Z,28.77
2018-07-25T16:04:26.116Z,29.15
2018-07-25T16:07:29.886Z,29.97
2018-07-25T16:10:33.751Z,29.84
2018-07-25T16:13:37.501Z,30.09
2018-07-25T16:16:41.246Z,30.32
2018-07-25T16:19:44.900Z,29.31
2018-07-25T16:22:48.579Z,30.17
2018-07-25T16:25:52.331Z,30.56
2018-07-25T16:28:56.237Z,31.52
2018-07-25T16:32:00.132Z,32.30
2018-07-25T16:35:03.956Z,31.46
2018-07-25T16:38:07.720Z,31.28
2018-07-25T16:41:11.357Z,31.85
2018-07-25T16:44:15.161Z,32.07
2018-07-25T16:47:18.837Z,32.25
2018-07-25T16:50:22.646Z,32.89
2018-07-25T16:53:26.457Z,34.87
2018-07-25T16:56:30.343Z,36.12
2018-07-25T16:59:33.966Z,37.60
2018-07-25T17:02:37.756Z,38.26
2018-07-25T17:05:41.422Z,38.40
2018-07-25T17:08:45.312Z,38.84
2018-07-25T17:11:49.094Z,39.31
2018-07-25T17:14:52.906Z,39.62
2018-07-25T17:17:56.680Z,39.75
2018-07-25T17:21:00.383Z,40.34
2018-07-25T17:24:04.262Z,40.90
2018-07-25T17:27:07.885Z,40.99
2018-07-25T17:30:11.881Z,41.21
2018-07-25T17:33:16.107Z,41.02
2018-07-25T17:36:19.836Z,41.34
2018-07-25T17:39:23.447Z,41.18
2018-07-25T17:42:27.202Z,40.95
2018-07-25T17:45:30.921Z,41.62
2018-07-25T17:48:34.710Z,41.36
2018-07-25T17:51:39.615Z,41.57
2018-07-25T17:54:44.253Z,40.64
2018-07-25T17:57:47.932Z,40.86
2018-07-25T18:00:51.774Z,41.40
2018-07-25T18:03:55.630Z,43.01
2018-07-25T18:06:59.588Z,43.89
2018-07-25T18:10:03.482Z,44.89
2018-07-25T18:13:12.352Z,46.51
2018-07-25T18:16:17.206Z,47.42
2018-07-25T18:19:22.129Z,47.62
2018-07-25T18:22:26.093Z,48.54
2018-07-25T18:25:30.132Z,48.30
2018-07-25T18:28:33.748Z,48.55
2018-07-25T18:31:37.632Z,48.67
2018-07-25T18:34:41.583Z,48.78
2018-07-25T18:37:45.398Z,49.07
2018-07-25T18:40:49.125Z,49.80
2018-07-25T18:43:53.062Z,50.37
2018-07-25T18:46:57.276Z,50.51
2018-07-25T18:50:01.342Z,51.47
2018-07-25T18:53:05.658Z,54.31
2018-07-25T18:56:09.779Z,55.64
2018-07-25T18:59:13.588Z,56.73
2018-07-25T19:02:17.334Z,57.28
2018-07-25T19:05:25.565Z,57.88
2018-07-25T19:08:29.689Z,58.58
2018-07-25T19:11:33.878Z,58.33
2018-07-25T19:14:43.039Z,58.30
2018-07-25T19:17:46.933Z,58.50
2018-07-25T19:20:50.567Z,58.50
2018-07-25T19:23:54.767Z,58.60
2018-07-25T19:26:58.885Z,59.04
2018-07-25T19:30:03.009Z,59.95
2018-07-25T19:33:07.043Z,60.72
2018-07-25T19:36:10.805Z,61.27
2018-07-25T19:39:14.509Z,61.57
2018-07-25T19:42:19.408Z,61.62
2018-07-25T19:45:23.389Z,62.07
2018-07-25T19:48:27.398Z,62.33
2018-07-25T19:51:31.211Z,62.32
2018-07-25T19:54:35.209Z,62.42
2018-07-25T19:57:42.407Z,62.55
2018-07-25T20:00:46.420Z,62.87
2018-07-25T20:03:50.450Z,63.13
2018-07-25T20:06:54.327Z,62.90
2018-07-25T20:09:58.302Z,63.26
2018-07-25T20:13:02.378Z,63.43
2018-07-25T20:16:06.424Z,63.63
2018-07-25T20:19:10.136Z,63.97
2018-07-25T20:22:14.828Z,64.21
2018-07-25T20:25:18.833Z,64.42
2018-07-25T20:28:22.525Z,64.64
2018-07-25T20:31:26.289Z,64.71
2018-07-25T20:34:29.933Z,64.51
2018-07-25T20:37:34.009Z,64.72
2018-07-25T20:40:37.739Z,65.32
2018-07-25T20:43:41.514Z,64.98
2018-07-25T20:46:45.193Z,65.20
2018-07-25T20:49:49.199Z,65.34
2018-07-25T20:52:53.375Z,65.54
2018-07-25T20:55:57.244Z,65.85
2018-07-25T20:59:00.947Z,66.67
2018-07-25T21:02:04.642Z,67.09
2018-07-25T21:05:08.622Z,67.95
2018-07-25T21:08:12.371Z,68.73
2018-07-25T21:11:15.998Z,69.51
2018-07-25T21:14:19.783Z,69.99
2018-07-25T21:17:23.462Z,70.60
2018-07-25T21:20:27.117Z,70.53
2018-07-25T21:23:30.862Z,70.92
2018-07-25T21:26:34.512Z,71.14
2018-07-25T21:29:38.275Z,71.89
2018-07-25T21:32:42.115Z,71.68
2018-07-25T21:35:45.731Z,72.04
2018-07-25T21:38:49.406Z,72.06
2018-07-25T21:41:53.012Z,72.21
2018-07-25T21:44:56.832Z,72.21
2018-07-25T21:48:00.480Z,72.14
2018-07-25T21:51:04.209Z,72.30
2018-07-25T21:54:07.898Z,72.47
2018-07-25T21:57:11.589Z,72.34
2018-07-25T22:00:16.442Z,71.92
2018-07-25T22:03:20.055Z,71.79
2018-07-25T22:06:23.751Z,71.66
2018-07-25T22:09:27.295Z,71.55
2018-07-25T22:12:30.950Z,71.25
2018-07-25T22:15:34.619Z,71.30
2018-07-25T22:18:38.299Z,71.53
2018-07-25T22:21:42.034Z,71.95
2018-07-25T22:24:45.824Z,71.82
2018-07-25T22:27:49.532Z,72.32
2018-07-25T22:30:53.285Z,72.34
2018-07-25T22:33:57.120Z,72.31
2018-07-25T22:37:00.753Z,72.13
2018-07-25T22:40:04.384Z,72.20
2018-07-25T22:43:08.063Z,72.04
2018-07-25T22:46:11.798Z,72.27
2018-07-25T22:49:15.475Z,72.24
2018-07-25T22:52:19.150Z,72.11
2018-07-25T22:55:22.807Z,72.45
2018-07-25T22:58:26.500Z,72.07
2018-07-25T23:01:30.139Z,72.48
2018-07-25T23:04:33.759Z,72.24
2018-07-25T23:07:37.356Z,72.33
2018-07-25T23:10:41.193Z,72.22
2018-07-25T23:13:47.194Z,72.59
2018-07-25T23:16:50.815Z,72.73
2018-07-25T23:19:54.542Z,73.05
2018-07-25T23:22:59.184Z,73.04
2018-07-25T23:26:02.873Z,72.97
2018-07-25T23:29:06.695Z,73.06
2018-07-25T23:32:10.395Z,72.62
2018-07-25T23:35:14.115Z,72.92
2018-07-25T23:38:18.570Z,73.00
2018-07-25T23:41:22.319Z,72.91
2018-07-25T23:44:25.943Z,73.05
2018-07-25T23:47:29.701Z,73.24
2018-07-25T23:50:33.389Z,72.96
2018-07-25T23:53:37.107Z,72.48
2018-07-25T23:56:40.765Z,72.59
2018-07-25T23:59:44.421Z,72.38
